createdAt,value
2019-02-15T00:01:33.230Z,85.28
2019-02-15T00:04:22.362Z,85.51
2019-02-15T00:07:12.003Z,84.26
2019-02-15T00:10:02.094Z,84.89
2019-02-15T00:12:51.141Z,85.89
2019-02-15T00:15:40.456Z,86.34
2019-02-15T00:18:46.000Z,86.72
2019-02-15T00:21:49.882Z,88.02
2019-02-15T00:24:39.480Z,87.63
2019-02-15T00:27:29.077Z,88.29
2019-02-15T00:30:19.734Z,88.42
2019-02-15T00:33:08.501Z,89.51
2019-02-15T00:35:58.310Z,90.66
2019-02-15T00:38:47.985Z,91.31
2019-02-15T00:41:37.019Z,90.05
2019-02-15T00:44:26.716Z,90.95
2019-02-15T00:47:47.050Z,89.39
2019-02-15T00:50:43.186Z,87.76
2019-02-15T00:53:57.243Z,85.10
2019-02-15T00:57:14.257Z,83.43
2019-02-15T01:00:17.088Z,84.48
2019-02-15T01:03:40.756Z,83.08
2019-02-15T01:06:55.428Z,82.24
2019-02-15T01:09:52.136Z,80.69
2019-02-15T01:12:50.051Z,79.18
2019-02-15T01:15:39.550Z,80.00
2019-02-15T01:18:28.897Z,79.54
2019-02-15T01:21:18.063Z,79.76
2019-02-15T01:24:07.822Z,80.17
2019-02-15T01:26:59.612Z,80.40
2019-02-15T01:30:12.175Z,81.16
2019-02-15T01:33:28.520Z,81.28
2019-02-15T01:36:24.677Z,82.28
2019-02-15T01:39:36.062Z,81.41
2019-02-15T01:42:34.506Z,81.58
2019-02-15T01:45:28.235Z,81.87
2019-02-15T01:48:17.512Z,82.98
2019-02-15T01:51:06.750Z,84.06
2019-02-15T01:53:55.954Z,84.42
2019-02-15T01:56:44.513Z,83.47
2019-02-15T01:59:33.695Z,82.95
2019-02-15T02:02:24.613Z,84.17
2019-02-15T02:05:13.957Z,83.74
2019-02-15T02:08:04.140Z,85.28
2019-02-15T02:10:53.521Z,85.59
2019-02-15T02:13:49.410Z,85.66
2019-02-15T02:16:33.953Z,86.40
2019-02-15T02:19:23.143Z,85.84
2019-02-15T02:22:12.523Z,86.00
2019-02-15T02:25:01.831Z,87.06
2019-02-15T02:27:51.615Z,87.83
2019-02-15T02:30:40.600Z,85.15
2019-02-15T02:33:29.892Z,86.62
2019-02-15T02:36:21.527Z,85.05
2019-02-15T02:39:10.594Z,85.70
2019-02-15T02:41:59.665Z,83.80
2019-02-15T02:44:48.844Z,85.37
2019-02-15T02:47:37.993Z,85.66
2019-02-15T02:50:27.229Z,85.85
2019-02-15T02:53:16.789Z,86.05
2019-02-15T02:56:06.050Z,86.28
2019-02-15T02:58:55.445Z,84.54
2019-02-15T03:01:45.072Z,84.75
2019-02-15T03:04:34.313Z,82.68
2019-02-15T03:07:23.814Z,84.16
2019-02-15T03:10:12.590Z,83.91
2019-02-15T03:13:01.706Z,85.12
2019-02-15T03:15:50.823Z,84.25
2019-02-15T03:18:40.498Z,83.53
2019-02-15T03:21:29.730Z,83.79
2019-02-15T03:24:21.624Z,84.54
2019-02-15T03:27:11.081Z,83.47
2019-02-15T03:30:00.672Z,84.13
2019-02-15T03:32:49.488Z,85.11
2019-02-15T03:35:40.438Z,85.58
2019-02-15T03:38:34.888Z,85.78
2019-02-15T03:41:32.607Z,83.79
2019-02-15T03:44:22.810Z,84.40
2019-02-15T03:47:14.331Z,85.01
2019-02-15T03:50:04.981Z,85.26
2019-02-15T03:52:54.363Z,85.41
2019-02-15T03:55:43.336Z,85.59
2019-02-15T03:58:32.138Z,86.69
2019-02-15T04:01:21.494Z,87.35
2019-02-15T04:04:10.651Z,86.54
2019-02-15T04:06:59.682Z,87.09
2019-02-15T04:09:48.999Z,87.12
2019-02-15T04:12:37.886Z,86.90
2019-02-15T04:15:27.067Z,87.70
2019-02-15T04:18:16.598Z,87.47
2019-02-15T04:21:05.453Z,86.89
2019-02-15T04:23:54.283Z,84.88
2019-02-15T04:26:43.673Z,86.76
2019-02-15T04:29:33.121Z,88.60
2019-02-15T04:32:22.005Z,87.35
2019-02-15T04:35:11.400Z,88.07
2019-02-15T04:38:01.086Z,88.52
2019-02-15T04:40:50.157Z,88.90
2019-02-15T04:43:39.521Z,88.27
2019-02-15T04:46:28.635Z,86.38
2019-02-15T04:49:18.309Z,89.19
2019-02-15T04:52:07.727Z,89.17
2019-02-15T04:54:57.128Z,87.11
2019-02-15T04:57:46.345Z,85.06
2019-02-15T05:00:35.654Z,86.24
2019-02-15T05:03:25.022Z,87.55
2019-02-15T05:06:14.490Z,83.82
2019-02-15T05:09:05.226Z,83.87
2019-02-15T05:11:54.701Z,84.61
2019-02-15T05:14:52.871Z,83.85
2019-02-15T05:17:34.695Z,83.68
2019-02-15T05:20:26.986Z,83.60
2019-02-15T05:23:16.602Z,82.90
2019-02-15T05:26:05.301Z,84.18
2019-02-15T05:28:54.774Z,81.01
2019-02-15T05:31:44.094Z,81.13
2019-02-15T05:34:33.500Z,79.87
2019-02-15T05:37:22.743Z,80.14
2019-02-15T05:40:12.112Z,79.82
2019-02-15T05:43:01.204Z,76.18
2019-02-15T05:45:50.502Z,80.45
2019-02-15T05:48:39.842Z,81.85
2019-02-15T05:51:29.179Z,82.15
2019-02-15T05:54:21.692Z,78.61
2019-02-15T05:57:13.008Z,76.97
2019-02-15T06:00:02.517Z,76.05
2019-02-15T06:02:51.887Z,79.27
2019-02-15T06:05:42.458Z,73.54
2019-02-15T06:08:32.265Z,71.38
2019-02-15T06:11:21.730Z,73.40
2019-02-15T06:14:11.317Z,71.85
2019-02-15T06:17:01.817Z,73.46
2019-02-15T06:19:51.304Z,72.36
2019-02-15T06:22:40.326Z,72.81
2019-02-15T06:25:29.836Z,68.38
2019-02-15T06:28:19.125Z,67.12
2019-02-15T06:31:08.761Z,65.84
2019-02-15T06:33:58.330Z,65.61
2019-02-15T06:36:47.671Z,66.37
2019-02-15T06:39:36.940Z,65.55
2019-02-15T06:42:26.193Z,65.29
2019-02-15T06:45:23.963Z,62.59
2019-02-15T06:48:06.359Z,62.93
2019-02-15T06:50:55.780Z,62.19
2019-02-15T06:53:44.851Z,62.43
2019-02-15T06:56:34.376Z,63.62
2019-02-15T06:59:37.970Z,61.17
2019-02-15T07:02:31.204Z,63.08
2019-02-15T07:05:25.831Z,64.00
2019-02-15T07:08:14.977Z,60.79
2019-02-15T07:11:04.282Z,59.59
2019-02-15T07:13:53.562Z,60.29
2019-02-15T07:16:43.139Z,60.20
2019-02-15T07:19:32.482Z,59.22
2019-02-15T07:22:22.089Z,59.73
2019-02-15T07:25:11.514Z,60.66
2019-02-15T07:28:00.411Z,58.92
2019-02-15T07:30:49.686Z,58.23
2019-02-15T07:33:38.855Z,58.03
2019-02-15T07:36:28.229Z,58.63
2019-02-15T07:39:17.803Z,59.96
2019-02-15T07:42:07.163Z,59.23
2019-02-15T07:44:56.239Z,59.52
2019-02-15T07:47:45.454Z,60.75
2019-02-15T07:50:34.830Z,58.95
2019-02-15T07:53:24.062Z,58.57
2019-02-15T07:56:13.427Z,58.14
2019-02-15T07:59:02.651Z,56.36
2019-02-15T08:01:51.954Z,57.88
2019-02-15T08:04:41.223Z,57.10
2019-02-15T08:07:30.505Z,58.47
2019-02-15T08:10:19.834Z,56.47
2019-02-15T08:13:09.214Z,57.24
2019-02-15T08:15:58.151Z,57.60
2019-02-15T08:18:47.430Z,56.10
2019-02-15T08:21:36.951Z,58.50
2019-02-15T08:24:26.278Z,56.75
2019-02-15T08:27:16.025Z,56.01
2019-02-15T08:30:05.796Z,55.18
2019-02-15T08:32:54.918Z,53.93
2019-02-15T08:35:43.944Z,54.75
2019-02-15T08:38:33.097Z,52.97
2019-02-15T08:41:22.202Z,51.93
2019-02-15T08:44:11.473Z,51.97
2019-02-15T08:47:01.110Z,52.22
2019-02-15T08:49:50.234Z,53.03
2019-02-15T08:52:39.699Z,49.78
2019-02-15T08:55:28.928Z,49.88
2019-02-15T08:58:18.667Z,50.26
2019-02-15T09:01:08.310Z,52.11
2019-02-15T09:03:57.698Z,50.63
2019-02-15T09:06:49.080Z,52.36
2019-02-15T09:09:38.486Z,51.96
2019-02-15T09:12:27.948Z,50.78
2019-02-15T09:15:19.667Z,49.55
2019-02-15T09:18:09.213Z,49.55
2019-02-15T09:20:58.457Z,50.74
2019-02-15T09:23:47.809Z,49.54
2019-02-15T09:26:52.176Z,50.56
2019-02-15T09:29:42.206Z,48.97
2019-02-15T09:32:31.202Z,50.98
2019-02-15T09:35:20.295Z,50.89
2019-02-15T09:38:09.998Z,49.19
2019-02-15T09:40:59.365Z,50.30
2019-02-15T09:43:48.649Z,47.99
2019-02-15T09:46:37.470Z,48.10
2019-02-15T09:49:26.511Z,50.00
2019-02-15T09:52:15.716Z,51.29
2019-02-15T09:55:04.984Z,51.93
2019-02-15T09:57:54.426Z,52.55
2019-02-15T10:00:43.746Z,52.19
2019-02-15T10:03:33.706Z,52.17
2019-02-15T10:06:22.898Z,52.78
2019-02-15T10:09:12.343Z,52.55
2019-02-15T10:12:01.903Z,53.24
2019-02-15T10:14:51.171Z,50.45
2019-02-15T10:17:40.680Z,50.72
2019-02-15T10:20:29.871Z,50.02
2019-02-15T10:23:19.214Z,52.07
2019-02-15T10:26:08.510Z,51.80
2019-02-15T10:28:57.796Z,51.06
2019-02-15T10:31:47.099Z,50.46
2019-02-15T10:34:36.707Z,49.79
2019-02-15T10:37:26.018Z,48.41
2019-02-15T10:40:15.253Z,49.73
2019-02-15T10:43:04.541Z,51.66
2019-02-15T10:45:54.172Z,49.32
2019-02-15T10:48:43.466Z,50.01
2019-02-15T10:51:32.968Z,51.32
2019-02-15T10:54:22.168Z,50.77
2019-02-15T10:57:12.457Z,49.44
2019-02-15T11:00:01.705Z,51.19
2019-02-15T11:02:50.844Z,52.09
2019-02-15T11:05:40.114Z,54.69
2019-02-15T11:08:29.335Z,54.88
2019-02-15T11:11:18.667Z,54.05
2019-02-15T11:14:07.656Z,53.91
2019-02-15T11:16:56.941Z,54.98
2019-02-15T11:19:46.322Z,54.24
2019-02-15T11:22:35.183Z,54.70
2019-02-15T11:25:24.517Z,53.00
2019-02-15T11:28:14.027Z,50.38
2019-02-15T11:31:03.263Z,52.48
2019-02-15T11:33:52.450Z,54.80
2019-02-15T11:36:42.097Z,53.71
2019-02-15T11:39:31.072Z,56.99
2019-02-15T11:42:20.466Z,58.13
2019-02-15T11:45:10.995Z,58.27
2019-02-15T11:48:00.158Z,59.18
2019-02-15T11:50:49.459Z,58.87
2019-02-15T11:53:38.802Z,59.79
2019-02-15T11:56:28.100Z,60.70
2019-02-15T11:59:17.458Z,61.31
2019-02-15T12:02:06.873Z,62.95
2019-02-15T12:04:56.534Z,64.18
2019-02-15T12:07:46.043Z,64.50
2019-02-15T12:10:35.251Z,64.02
2019-02-15T12:13:27.452Z,63.77
2019-02-15T12:16:16.784Z,63.71
2019-02-15T12:19:06.034Z,65.81
2019-02-15T12:21:55.331Z,64.43
2019-02-15T12:24:44.748Z,63.11
2019-02-15T12:27:33.798Z,63.88
2019-02-15T12:30:22.861Z,66.27
2019-02-15T12:33:12.191Z,64.61
2019-02-15T12:36:01.391Z,64.60
2019-02-15T12:38:50.878Z,63.51
2019-02-15T12:41:39.942Z,65.56
2019-02-15T12:44:29.334Z,66.77
2019-02-15T12:47:18.838Z,70.39
2019-02-15T12:50:10.701Z,72.91
2019-02-15T12:53:00.227Z,72.86
2019-02-15T12:55:49.220Z,74.79
2019-02-15T12:58:38.890Z,74.28
2019-02-15T13:01:28.668Z,75.23
2019-02-15T13:04:17.817Z,74.94
2019-02-15T13:06:52.170Z,74.58
2019-02-15T13:09:23.026Z,76.17
2019-02-15T13:11:53.883Z,77.32
2019-02-15T13:14:24.767Z,78.94
2019-02-15T13:16:55.607Z,79.04
2019-02-15T13:19:26.448Z,80.09
2019-02-15T13:21:57.472Z,80.58
2019-02-15T13:24:28.330Z,80.54
2019-02-15T13:26:59.177Z,80.59
2019-02-15T13:29:30.067Z,78.56
2019-02-15T13:32:00.931Z,75.24
2019-02-15T13:34:32.189Z,74.23
2019-02-15T13:37:03.136Z,73.55
2019-02-15T13:39:34.079Z,73.15
2019-02-15T13:42:04.930Z,69.86
2019-02-15T13:44:35.820Z,68.22
2019-02-15T13:47:06.675Z,68.56
2019-02-15T13:49:37.539Z,66.53
2019-02-15T13:52:08.516Z,65.50
2019-02-15T13:54:39.360Z,67.58
2019-02-15T13:57:10.206Z,67.66
2019-02-15T13:59:41.105Z,66.20
2019-02-15T14:02:11.943Z,65.60
2019-02-15T14:04:42.803Z,64.43
2019-02-15T14:07:19.054Z,64.82
2019-02-15T14:09:49.906Z,63.93
2019-02-15T14:12:20.784Z,65.87
2019-02-15T14:14:51.639Z,62.72
2019-02-15T14:17:22.496Z,64.25
2019-02-15T14:19:53.419Z,63.59
2019-02-15T14:22:24.341Z,63.06
2019-02-15T14:24:55.479Z,61.59
2019-02-15T14:27:26.466Z,60.99
2019-02-15T14:29:57.340Z,62.05
2019-02-15T14:32:28.213Z,61.03
2019-02-15T14:35:00.321Z,60.05
2019-02-15T14:37:31.203Z,60.74
2019-02-15T14:40:02.063Z,61.30
2019-02-15T14:42:33.015Z,59.82
2019-02-15T14:45:03.892Z,60.93
2019-02-15T14:47:34.750Z,60.92
2019-02-15T14:50:05.726Z,61.52
2019-02-15T14:52:36.634Z,62.54
2019-02-15T14:55:07.734Z,61.73
2019-02-15T14:57:40.503Z,61.16
2019-02-15T15:00:12.223Z,58.04
2019-02-15T15:02:43.223Z,57.97
2019-02-15T15:05:14.455Z,58.06
2019-02-15T15:07:45.328Z,58.13
2019-02-15T15:10:16.284Z,58.21
2019-02-15T15:12:47.175Z,60.00
2019-02-15T15:15:18.071Z,60.37
2019-02-15T15:18:00.919Z,58.05
2019-02-15T15:20:24.789Z,56.99
2019-02-15T15:22:55.648Z,58.76
2019-02-15T15:25:26.591Z,58.64
2019-02-15T15:27:57.579Z,57.93
2019-02-15T15:30:28.472Z,59.07
2019-02-15T15:32:59.944Z,60.28
2019-02-15T15:35:32.137Z,58.89
2019-02-15T15:38:03.516Z,59.74
2019-02-15T15:40:34.677Z,59.63
2019-02-15T15:43:05.848Z,60.05
2019-02-15T15:45:36.859Z,59.41
2019-02-15T15:48:07.943Z,59.75
2019-02-15T15:50:42.150Z,61.75
2019-02-15T15:53:13.290Z,60.98
2019-02-15T15:55:44.325Z,63.04
2019-02-15T15:58:15.449Z,62.20
2019-02-15T16:00:46.355Z,63.44
2019-02-15T16:03:17.381Z,62.74
2019-02-15T16:05:48.275Z,63.64
2019-02-15T16:08:19.178Z,64.24
2019-02-15T16:10:50.162Z,62.35
2019-02-15T16:13:21.223Z,61.57
2019-02-15T16:15:52.201Z,63.40
2019-02-15T16:18:32.022Z,63.45
2019-02-15T16:20:55.959Z,63.83
2019-02-15T16:23:26.979Z,62.13
2019-02-15T16:25:58.035Z,62.29
2019-02-15T16:28:29.126Z,64.44
2019-02-15T16:31:00.110Z,64.07
2019-02-15T16:33:36.395Z,63.83
2019-02-15T16:36:08.164Z,65.42
2019-02-15T16:38:39.277Z,65.01
2019-02-15T16:41:10.354Z,65.61
2019-02-15T16:43:41.544Z,65.74
2019-02-15T16:46:12.596Z,65.82
2019-02-15T16:48:43.761Z,66.48
2019-02-15T16:51:14.936Z,67.68
2019-02-15T16:53:46.092Z,67.52
2019-02-15T16:56:17.088Z,65.34
2019-02-15T16:58:48.227Z,64.46
2019-02-15T17:01:19.444Z,62.12
2019-02-15T17:03:50.617Z,63.53
2019-02-15T17:06:23.346Z,61.16
2019-02-15T17:08:54.641Z,62.65
2019-02-15T17:11:25.891Z,62.27
2019-02-15T17:13:57.058Z,64.81
2019-02-15T17:16:28.845Z,61.18
2019-02-15T17:19:00.359Z,60.93
2019-02-15T17:21:34.784Z,59.72
2019-02-15T17:24:05.906Z,59.66
2019-02-15T17:26:36.925Z,62.40
2019-02-15T17:29:08.045Z,61.24
2019-02-15T17:31:39.196Z,63.44
2019-02-15T17:34:10.220Z,61.01
2019-02-15T17:36:41.913Z,62.60
2019-02-15T17:39:12.915Z,65.76
2019-02-15T17:41:43.918Z,65.28
2019-02-15T17:44:14.959Z,64.35
2019-02-15T17:46:46.184Z,65.46
2019-02-15T17:49:17.194Z,64.91
2019-02-15T17:51:48.141Z,65.67
2019-02-15T17:54:19.337Z,67.40
2019-02-15T17:56:50.345Z,64.90
2019-02-15T17:59:21.424Z,66.20
2019-02-15T18:01:52.449Z,64.56
2019-02-15T18:04:23.596Z,65.92
2019-02-15T18:06:54.559Z,66.24
2019-02-15T18:09:26.044Z,64.13
2019-02-15T18:11:56.970Z,64.88
2019-02-15T18:14:27.912Z,65.60
2019-02-15T18:16:59.154Z,65.96
2019-02-15T18:19:30.337Z,67.09
2019-02-15T18:22:02.994Z,66.82
2019-02-15T18:24:36.251Z,66.03
2019-02-15T18:27:07.260Z,65.57
2019-02-15T18:29:38.281Z,66.26
2019-02-15T18:32:09.441Z,67.01
2019-02-15T18:34:40.374Z,68.61
2019-02-15T18:37:11.719Z,67.52
2019-02-15T18:39:43.175Z,65.01
2019-02-15T18:42:14.979Z,65.29
2019-02-15T18:44:46.133Z,65.50
2019-02-15T18:47:17.449Z,67.33
2019-02-15T18:49:48.736Z,67.69
2019-02-15T18:52:20.119Z,65.73
2019-02-15T18:54:51.530Z,66.49
2019-02-15T18:57:23.004Z,67.42
2019-02-15T18:59:54.322Z,68.95
2019-02-15T19:02:26.141Z,67.53
2019-02-15T19:04:57.422Z,65.10
2019-02-15T19:07:29.057Z,66.64
2019-02-15T19:10:01.685Z,66.42
2019-02-15T19:12:33.095Z,65.21
2019-02-15T19:15:05.060Z,66.45
2019-02-15T19:17:36.884Z,66.52
2019-02-15T19:20:09.503Z,65.64
2019-02-15T19:22:40.682Z,67.00
2019-02-15T19:25:13.028Z,65.95
2019-02-15T19:27:44.195Z,66.86
2019-02-15T19:30:17.792Z,67.57
2019-02-15T19:32:49.324Z,67.31
2019-02-15T19:35:20.507Z,66.39
2019-02-15T19:37:52.040Z,66.72
2019-02-15T19:40:25.076Z,64.04
2019-02-15T19:42:56.822Z,65.53
2019-02-15T19:45:27.997Z,66.97
2019-02-15T19:47:59.458Z,64.49
2019-02-15T19:50:30.960Z,66.64
2019-02-15T19:53:02.055Z,67.02
2019-02-15T19:55:36.129Z,66.86
2019-02-15T19:58:07.237Z,67.18
2019-02-15T20:00:38.374Z,66.27
2019-02-15T20:03:09.520Z,67.50
2019-02-15T20:05:59.191Z,66.21
2019-02-15T20:08:48.938Z,65.83
2019-02-15T20:11:38.474Z,64.18
2019-02-15T20:14:09.803Z,65.63
2019-02-15T20:16:40.906Z,67.08
2019-02-15T20:19:11.890Z,66.43
2019-02-15T20:21:43.374Z,66.99
2019-02-15T20:24:14.400Z,66.84
2019-02-15T20:26:45.377Z,66.72
2019-02-15T20:29:16.688Z,62.97
2019-02-15T20:31:47.711Z,63.08
2019-02-15T20:34:18.863Z,65.19
2019-02-15T20:36:49.791Z,65.96
2019-02-15T20:39:22.032Z,64.10
2019-02-15T20:41:53.054Z,65.23
2019-02-15T20:44:24.211Z,64.98
2019-02-15T20:46:55.273Z,65.34
2019-02-15T20:49:26.160Z,66.71
2019-02-15T20:51:57.407Z,65.07
2019-02-15T20:54:28.300Z,67.18
2019-02-15T20:57:00.977Z,65.24
2019-02-15T20:59:41.669Z,65.93
2019-02-15T21:02:14.363Z,61.97
2019-02-15T21:04:45.227Z,61.88
2019-02-15T21:07:16.186Z,64.48
2019-02-15T21:09:47.095Z,64.68
2019-02-15T21:12:17.982Z,64.19
2019-02-15T21:14:48.436Z,66.13
2019-02-15T21:17:22.483Z,66.88
2019-02-15T21:19:53.337Z,68.04
2019-02-15T21:22:24.591Z,67.69
2019-02-15T21:24:55.663Z,66.21
2019-02-15T21:27:26.523Z,66.64
2019-02-15T21:29:57.632Z,66.27
2019-02-15T21:32:28.504Z,65.04
2019-02-15T21:34:59.483Z,64.40
2019-02-15T21:37:30.824Z,64.31
2019-02-15T21:40:01.825Z,64.79
2019-02-15T21:42:32.675Z,64.52
2019-02-15T21:45:03.613Z,63.68
2019-02-15T21:47:34.455Z,62.53
2019-02-15T21:50:05.599Z,62.52
2019-02-15T21:52:43.743Z,63.06
2019-02-15T21:55:09.174Z,64.88
2019-02-15T21:57:40.022Z,65.43
2019-02-15T22:00:13.435Z,64.52
2019-02-15T22:02:44.271Z,64.91
2019-02-15T22:05:16.234Z,63.44
2019-02-15T22:07:47.565Z,64.76
2019-02-15T22:10:22.695Z,65.27
2019-02-15T22:12:56.683Z,65.45
2019-02-15T22:15:28.228Z,65.67
2019-02-15T22:18:02.381Z,66.51
2019-02-15T22:20:33.581Z,64.79
2019-02-15T22:23:05.928Z,65.69
2019-02-15T22:25:37.182Z,62.65
2019-02-15T22:28:08.676Z,63.29
2019-02-15T22:30:39.985Z,63.27
2019-02-15T22:33:11.050Z,62.32
2019-02-15T22:35:42.025Z,61.34
2019-02-15T22:38:12.915Z,62.98
2019-02-15T22:40:45.194Z,60.59
2019-02-15T22:43:21.692Z,60.86
2019-02-15T22:45:52.537Z,61.42
2019-02-15T22:48:23.373Z,60.62
2019-02-15T22:50:54.383Z,62.55
2019-02-15T22:53:25.211Z,63.57
2019-02-15T22:55:59.434Z,62.69
2019-02-15T22:58:30.705Z,63.59
2019-02-15T23:01:15.260Z,61.70
2019-02-15T23:03:46.235Z,62.49
2019-02-15T23:06:17.072Z,62.59
2019-02-15T23:08:47.912Z,64.13
2019-02-15T23:11:18.800Z,64.97
2019-02-15T23:13:49.630Z,65.65
2019-02-15T23:16:20.453Z,65.32
2019-02-15T23:18:51.323Z,64.81
2019-02-15T23:21:22.168Z,64.02
2019-02-15T23:23:53.110Z,65.30
2019-02-15T23:26:23.943Z,65.18
2019-02-15T23:28:54.777Z,65.03
2019-02-15T23:31:25.652Z,66.34
2019-02-15T23:33:56.496Z,67.94
2019-02-15T23:36:27.332Z,67.65
2019-02-15T23:38:58.260Z,67.05
2019-02-15T23:41:29.390Z,69.62
2019-02-15T23:44:00.355Z,70.22
2019-02-15T23:46:31.231Z,70.05
2019-02-15T23:49:02.071Z,70.49
2019-02-15T23:51:32.913Z,70.65
2019-02-15T23:54:03.781Z,71.44
2019-02-15T23:56:34.805Z,73.05
2019-02-15T23:59:05.639Z,74.33
